createdAt,value
2023-01-23T00:02:46.391Z,7.37
2023-01-23T00:05:44.216Z,8.04
2023-01-23T00:08:42.540Z,8.20
2023-01-23T00:11:40.251Z,7.78
2023-01-23T00:14:37.691Z,6.70
2023-01-23T00:17:35.435Z,5.76
2023-01-23T00:20:32.879Z,5.04
2023-01-23T00:23:30.586Z,4.45
2023-01-23T00:26:28.294Z,3.98
2023-01-23T00:29:25.744Z,3.59
2023-01-23T00:32:23.349Z,3.75
2023-01-23T00:35:20.763Z,5.38
2023-01-23T00:38:18.575Z,6.77
2023-01-23T00:41:16.034Z,7.50
2023-01-23T00:44:13.755Z,7.93
2023-01-23T00:47:11.520Z,8.30
2023-01-23T00:50:08.947Z,8.57
2023-01-23T00:53:06.843Z,8.79
2023-01-23T00:56:04.264Z,8.68
2023-01-23T00:59:01.993Z,7.49
2023-01-23T01:01:59.430Z,6.35
2023-01-23T01:04:57.208Z,5.47
2023-01-23T01:07:54.634Z,4.83
2023-01-23T01:10:52.447Z,4.30
2023-01-23T01:13:50.204Z,3.84
2023-01-23T01:16:47.653Z,3.48
2023-01-23T01:19:45.427Z,3.29
2023-01-23T01:22:42.876Z,3.33
2023-01-23T01:25:40.500Z,3.32
2023-01-23T01:28:38.168Z,3.28
2023-01-23T01:31:36.010Z,3.20
2023-01-23T01:34:33.849Z,3.21
2023-01-23T01:37:31.314Z,4.41
2023-01-23T01:40:29.082Z,5.62
2023-01-23T01:43:26.535Z,6.22
2023-01-23T01:46:24.318Z,6.98
2023-01-23T01:49:21.787Z,7.67
2023-01-23T01:52:19.522Z,8.06
2023-01-23T01:55:16.944Z,8.46
2023-01-23T01:58:14.997Z,8.41
2023-01-23T02:01:12.447Z,8.80
2023-01-23T02:04:10.221Z,9.41
2023-01-23T02:07:08.070Z,9.16
2023-01-23T02:10:05.490Z,7.84
2023-01-23T02:13:03.200Z,6.61
2023-01-23T02:16:00.736Z,5.65
2023-01-23T02:18:59.118Z,4.93
2023-01-23T02:21:56.633Z,4.35
2023-01-23T02:24:55.475Z,3.87
2023-01-23T02:27:52.938Z,3.77
2023-01-23T02:30:51.593Z,4.98
2023-01-23T02:33:49.394Z,6.36
2023-01-23T02:36:46.827Z,6.85
2023-01-23T02:39:44.648Z,7.00
2023-01-23T02:42:42.958Z,7.60
2023-01-23T02:45:40.779Z,8.17
2023-01-23T02:48:38.246Z,7.84
2023-01-23T02:51:36.002Z,6.95
2023-01-23T02:54:33.453Z,5.91
2023-01-23T02:57:31.540Z,5.14
2023-01-23T03:00:29.287Z,4.57
2023-01-23T03:03:26.712Z,4.12
2023-01-23T03:06:24.557Z,3.74
2023-01-23T03:09:22.740Z,3.74
2023-01-23T03:12:20.477Z,5.06
2023-01-23T03:15:18.148Z,6.44
2023-01-23T03:18:15.591Z,7.26
2023-01-23T03:21:13.295Z,7.51
2023-01-23T03:24:10.732Z,7.62
2023-01-23T03:27:08.833Z,8.08
2023-01-23T03:30:16.183Z,8.39
2023-01-23T03:33:13.954Z,8.44
2023-01-23T03:36:13.015Z,8.21
2023-01-23T03:39:28.542Z,7.16
2023-01-23T03:42:26.329Z,6.03
2023-01-23T03:45:23.757Z,5.20
2023-01-23T03:48:21.330Z,4.56
2023-01-23T03:51:18.882Z,4.06
2023-01-23T03:54:16.554Z,3.90
2023-01-23T03:57:13.980Z,4.69
2023-01-23T04:00:14.026Z,5.31
2023-01-23T04:03:11.799Z,5.73
2023-01-23T04:06:09.217Z,6.08
2023-01-23T04:09:06.929Z,6.27
2023-01-23T04:12:04.379Z,6.32
2023-01-23T04:15:02.008Z,6.36
2023-01-23T04:17:59.439Z,6.49
2023-01-23T04:20:57.164Z,7.47
2023-01-23T04:23:54.600Z,8.45
2023-01-23T04:26:52.405Z,8.77
2023-01-23T04:29:50.125Z,8.81
2023-01-23T04:32:47.545Z,8.49
2023-01-23T04:35:45.379Z,7.38
2023-01-23T04:38:42.791Z,6.35
2023-01-23T04:41:40.512Z,5.49
2023-01-23T04:44:37.931Z,4.80
2023-01-23T04:47:35.637Z,4.26
2023-01-23T04:50:33.056Z,3.79
2023-01-23T04:53:30.756Z,3.65
2023-01-23T04:56:28.189Z,4.47
2023-01-23T04:59:25.993Z,5.17
2023-01-23T05:02:23.460Z,5.51
2023-01-23T05:05:21.843Z,5.64
2023-01-23T05:08:19.256Z,5.58
2023-01-23T05:11:17.027Z,5.51
2023-01-23T05:14:14.722Z,5.47
2023-01-23T05:17:12.163Z,5.41
2023-01-23T05:20:09.976Z,5.39
2023-01-23T05:23:07.394Z,5.35
2023-01-23T05:26:04.976Z,5.32
2023-01-23T05:29:02.643Z,5.27
2023-01-23T05:32:00.109Z,5.30
2023-01-23T05:34:57.883Z,5.23
2023-01-23T05:37:55.305Z,5.18
2023-01-23T05:40:53.091Z,5.40
2023-01-23T05:43:51.127Z,5.35
2023-01-23T05:46:48.823Z,5.49
2023-01-23T05:49:47.114Z,5.96
2023-01-23T05:52:44.536Z,7.01
2023-01-23T05:55:42.259Z,7.31
2023-01-23T05:58:39.679Z,7.02
2023-01-23T06:01:37.409Z,7.33
2023-01-23T06:04:34.816Z,8.44
2023-01-23T06:07:32.489Z,8.89
2023-01-23T06:10:30.196Z,8.96
2023-01-23T06:13:27.646Z,8.56
2023-01-23T06:16:25.330Z,7.35
2023-01-23T06:19:22.759Z,6.17
2023-01-23T06:22:21.241Z,5.33
2023-01-23T06:25:20.881Z,4.67
2023-01-23T06:28:18.634Z,4.39
2023-01-23T06:31:16.493Z,5.16
2023-01-23T06:34:14.084Z,5.71
2023-01-23T06:37:11.920Z,6.13
2023-01-23T06:40:13.335Z,6.34
2023-01-23T06:43:11.242Z,6.50
2023-01-23T06:46:08.713Z,6.72
2023-01-23T06:49:06.504Z,6.70
2023-01-23T06:52:03.960Z,6.66
2023-01-23T06:55:01.816Z,6.73
2023-01-23T06:57:59.704Z,6.76
2023-01-23T07:00:57.478Z,6.70
2023-01-23T07:03:55.210Z,6.61
2023-01-23T07:06:52.670Z,6.61
2023-01-23T07:09:50.369Z,6.66
2023-01-23T07:12:47.898Z,6.86
2023-01-23T07:15:45.672Z,6.96
2023-01-23T07:18:43.127Z,7.04
2023-01-23T07:21:40.894Z,7.25
2023-01-23T07:24:38.680Z,7.32
2023-01-23T07:27:36.220Z,7.17
2023-01-23T07:30:34.035Z,6.94
2023-01-23T07:33:31.574Z,6.70
2023-01-23T07:36:29.323Z,6.45
2023-01-23T07:39:26.783Z,6.22
2023-01-23T07:42:24.481Z,6.14
2023-01-23T07:45:22.017Z,6.10
2023-01-23T07:48:19.885Z,5.90
2023-01-23T07:51:17.786Z,5.92
2023-01-23T07:54:15.316Z,6.21
2023-01-23T07:57:13.186Z,6.55
2023-01-23T08:00:11.073Z,6.70
2023-01-23T08:03:09.470Z,6.78
2023-01-23T08:06:07.011Z,6.81
2023-01-23T08:09:04.879Z,6.83
2023-01-23T08:12:02.435Z,6.84
2023-01-23T08:15:00.233Z,6.89
2023-01-23T08:17:57.765Z,6.95
2023-01-23T08:20:55.635Z,6.69
2023-01-23T08:23:53.510Z,6.37
2023-01-23T08:26:50.970Z,6.18
2023-01-23T08:29:48.840Z,6.36
2023-01-23T08:32:46.298Z,6.53
2023-01-23T08:35:44.071Z,6.76
2023-01-23T08:38:41.859Z,6.98
2023-01-23T08:41:39.809Z,7.12
2023-01-23T08:44:37.297Z,7.00
2023-01-23T08:47:37.210Z,6.79
2023-01-23T08:50:35.068Z,6.41
2023-01-23T08:53:32.625Z,6.36
2023-01-23T08:56:30.389Z,6.20
2023-01-23T08:59:27.881Z,5.75
2023-01-23T09:02:25.818Z,5.42
2023-01-23T09:05:23.380Z,5.47
2023-01-23T09:08:21.149Z,5.57
2023-01-23T09:11:18.659Z,5.51
2023-01-23T09:14:16.484Z,5.46
2023-01-23T09:17:14.065Z,5.38
2023-01-23T09:20:11.920Z,5.30
2023-01-23T09:23:09.621Z,5.27
2023-01-23T09:26:07.149Z,5.17
2023-01-23T09:29:05.025Z,5.07
2023-01-23T09:32:03.443Z,5.06
2023-01-23T09:35:01.357Z,5.08
2023-01-23T09:38:01.710Z,5.09
2023-01-23T09:40:59.563Z,5.11
2023-01-23T09:43:57.437Z,5.14
2023-01-23T09:46:54.938Z,5.18
2023-01-23T09:49:53.584Z,5.20
2023-01-23T09:52:54.433Z,5.20
2023-01-23T09:55:52.297Z,5.20
2023-01-23T09:58:49.755Z,5.10
2023-01-23T10:01:47.847Z,5.13
2023-01-23T10:04:45.700Z,5.18
2023-01-23T10:07:43.365Z,5.20
2023-01-23T10:10:41.067Z,5.18
2023-01-23T10:13:38.593Z,5.15
2023-01-23T10:16:49.457Z,5.31
2023-01-23T10:19:47.884Z,6.12
2023-01-23T10:22:47.773Z,6.44
2023-01-23T10:25:45.569Z,6.61
2023-01-23T10:28:43.102Z,6.55
2023-01-23T10:31:41.348Z,6.43
2023-01-23T10:34:38.946Z,6.42
2023-01-23T10:37:36.760Z,6.33
2023-01-23T10:40:48.508Z,6.19
2023-01-23T10:43:46.086Z,5.85
2023-01-23T10:46:43.840Z,5.56
2023-01-23T10:49:41.305Z,5.28
2023-01-23T10:52:39.081Z,5.09
2023-01-23T10:55:36.972Z,5.01
2023-01-23T10:58:35.450Z,5.10
2023-01-23T11:01:33.086Z,5.12
2023-01-23T11:04:30.855Z,5.49
2023-01-23T11:07:28.655Z,5.86
2023-01-23T11:10:26.188Z,5.84
2023-01-23T11:13:23.760Z,5.72
2023-01-23T11:16:21.211Z,5.71
2023-01-23T11:19:18.880Z,5.52
2023-01-23T11:22:16.299Z,5.30
2023-01-23T11:25:13.894Z,5.14
2023-01-23T11:28:11.905Z,5.00
2023-01-23T11:31:14.524Z,4.88
2023-01-23T11:34:12.592Z,4.83
2023-01-23T11:37:10.301Z,4.79
2023-01-23T11:40:07.933Z,4.89
2023-01-23T11:43:05.356Z,4.98
2023-01-23T11:46:03.212Z,5.24
2023-01-23T11:49:01.162Z,5.16
2023-01-23T11:51:58.587Z,5.00
2023-01-23T11:54:56.168Z,4.80
2023-01-23T11:57:53.574Z,4.65
2023-01-23T12:00:51.932Z,4.53
2023-01-23T12:03:49.456Z,4.45
2023-01-23T12:06:47.250Z,4.39
2023-01-23T12:09:44.932Z,4.38
2023-01-23T12:12:42.380Z,4.38
2023-01-23T12:15:40.163Z,4.42
2023-01-23T12:18:40.404Z,4.39
2023-01-23T12:21:38.448Z,4.46
2023-01-23T12:24:35.867Z,4.49
2023-01-23T12:27:34.682Z,4.53
2023-01-23T12:30:32.094Z,4.60
2023-01-23T12:33:30.963Z,4.65
2023-01-23T12:36:28.817Z,4.71
2023-01-23T12:39:26.276Z,4.76
2023-01-23T12:42:23.939Z,4.79
2023-01-23T12:45:21.666Z,4.81
2023-01-23T12:48:19.571Z,4.84
2023-01-23T12:51:17.279Z,4.85
2023-01-23T12:54:15.830Z,4.86
2023-01-23T12:57:13.595Z,4.86
2023-01-23T13:00:11.043Z,4.88
2023-01-23T13:03:08.822Z,4.76
2023-01-23T13:06:06.259Z,4.63
2023-01-23T13:09:16.694Z,4.92
2023-01-23T13:12:22.795Z,5.02
2023-01-23T13:15:27.729Z,5.04
2023-01-23T13:18:52.245Z,5.44
2023-01-23T13:22:03.009Z,5.56
2023-01-23T13:25:13.245Z,5.54
2023-01-23T13:28:10.847Z,5.62
2023-01-23T13:31:08.649Z,5.58
2023-01-23T13:34:15.326Z,5.39
2023-01-23T13:37:13.251Z,5.15
2023-01-23T13:40:11.425Z,5.01
2023-01-23T13:43:08.833Z,4.91
2023-01-23T13:46:06.612Z,4.87
2023-01-23T14:22:24.058Z,4.55
2023-01-23T14:25:21.983Z,4.51
2023-01-23T14:28:19.628Z,4.65
2023-01-23T14:31:17.332Z,4.83
2023-01-23T14:34:17.896Z,4.86
2023-01-23T14:37:16.554Z,4.98
2023-01-23T14:40:22.610Z,5.09
2023-01-23T14:43:24.140Z,5.28
2023-01-23T14:46:21.982Z,5.16
2023-01-23T14:49:19.457Z,5.14
2023-01-23T14:52:17.167Z,5.11
2023-01-23T14:55:22.115Z,5.06
2023-01-23T14:58:23.514Z,4.98
2023-01-23T15:01:21.023Z,4.91
2023-01-23T15:04:18.738Z,4.85
2023-01-23T15:07:16.479Z,4.80
2023-01-23T15:10:14.115Z,4.73
2023-01-23T15:13:11.953Z,4.69
2023-01-23T15:16:09.397Z,4.66
2023-01-23T15:19:07.781Z,4.61
2023-01-23T15:22:05.236Z,4.56
2023-01-23T15:25:02.995Z,4.59
2023-01-23T15:28:00.876Z,4.66
2023-01-23T15:30:58.397Z,4.61
2023-01-23T15:33:57.238Z,4.54
2023-01-23T15:36:54.696Z,4.52
2023-01-23T15:39:52.976Z,4.54
2023-01-23T15:42:50.757Z,4.49
2023-01-23T15:45:48.232Z,4.44
2023-01-23T15:48:45.966Z,4.40
2023-01-23T15:51:43.388Z,4.45
2023-01-23T15:54:41.477Z,4.46
2023-01-23T15:57:38.932Z,4.44
2023-01-23T16:00:36.588Z,4.41
2023-01-23T16:03:34.087Z,4.42
2023-01-23T16:06:32.459Z,4.41
2023-01-23T16:09:30.733Z,4.48
2023-01-23T16:12:28.569Z,4.58
2023-01-23T16:15:26.025Z,4.54
2023-01-23T16:18:25.091Z,4.49
2023-01-23T16:21:22.497Z,4.52
2023-01-23T16:24:20.410Z,4.50
2023-01-23T16:27:18.170Z,4.42
2023-01-23T16:30:16.042Z,4.37
2023-01-23T16:33:14.343Z,4.34
2023-01-23T16:36:11.989Z,4.31
2023-01-23T16:39:09.841Z,4.29
2023-01-23T16:42:07.590Z,4.33
2023-01-23T16:45:05.577Z,4.31
2023-01-23T16:48:04.549Z,4.54
2023-01-23T16:51:02.394Z,4.56
2023-01-23T16:54:05.968Z,4.52
2023-01-23T16:57:08.748Z,4.53
2023-01-23T17:00:07.185Z,4.57
2023-01-23T17:03:05.129Z,4.61
2023-01-23T17:06:02.542Z,4.86
2023-01-23T17:09:00.472Z,5.08
2023-01-23T17:11:57.915Z,5.20
2023-01-23T17:14:55.713Z,5.31
2023-01-23T17:17:53.798Z,5.29
2023-01-23T17:20:51.797Z,5.12
2023-01-23T17:23:49.590Z,4.91
2023-01-23T17:26:47.659Z,4.69
2023-01-23T17:29:46.151Z,4.51
2023-01-23T17:32:44.280Z,4.49
2023-01-23T17:35:42.223Z,4.47
2023-01-23T17:38:40.656Z,4.42
2023-01-23T17:41:38.358Z,4.40
2023-01-23T17:44:38.718Z,4.46
2023-01-23T17:47:39.794Z,4.48
2023-01-23T17:50:37.755Z,4.40
2023-01-23T17:53:35.954Z,4.37
2023-01-23T17:56:33.810Z,4.35
2023-01-23T17:59:33.937Z,4.34
2023-01-23T18:02:33.467Z,4.29
2023-01-23T18:05:32.042Z,4.22
2023-01-23T18:08:31.539Z,4.34
2023-01-23T18:11:29.830Z,4.80
2023-01-23T18:14:31.975Z,4.70
2023-01-23T18:17:31.706Z,4.51
2023-01-23T18:20:30.131Z,4.38
2023-01-23T18:23:29.181Z,4.30
2023-01-23T18:26:27.766Z,4.24
2023-01-23T18:29:26.354Z,4.25
2023-01-23T18:32:25.875Z,4.48
2023-01-23T18:35:25.269Z,4.44
2023-01-23T18:38:24.342Z,4.37
2023-01-23T18:41:23.026Z,4.35
2023-01-23T18:44:21.944Z,4.29
2023-01-23T18:47:20.124Z,4.23
2023-01-23T18:50:19.365Z,4.17
2023-01-23T18:53:18.936Z,4.20
2023-01-23T18:56:23.462Z,4.26
2023-01-23T18:59:25.117Z,4.29
2023-01-23T19:02:24.464Z,4.31
2023-01-23T19:05:24.609Z,4.27
2023-01-23T19:08:24.362Z,4.17
2023-01-23T19:11:23.356Z,4.14
2023-01-23T19:14:22.413Z,4.14
2023-01-23T19:17:20.914Z,4.09
2023-01-23T19:20:22.768Z,4.06
2023-01-23T19:23:23.051Z,4.16
2023-01-23T19:26:21.821Z,4.26
2023-01-23T19:29:23.114Z,4.33
2023-01-23T19:32:25.023Z,4.37
2023-01-23T19:35:30.143Z,4.41
2023-01-23T19:38:29.579Z,4.47
2023-01-23T19:41:30.078Z,4.51
2023-01-23T19:44:30.977Z,4.53
2023-01-23T19:47:30.080Z,4.55
2023-01-23T19:50:29.348Z,4.56
2023-01-23T19:53:29.675Z,4.60
2023-01-23T19:56:28.733Z,4.62
2023-01-23T19:59:28.597Z,4.65
2023-01-23T20:02:27.586Z,4.66
2023-01-23T20:05:26.692Z,4.66
2023-01-23T20:08:25.140Z,4.66
2023-01-23T20:11:23.767Z,4.66
2023-01-23T20:14:24.721Z,4.67
2023-01-23T20:17:24.413Z,5.87
2023-01-23T20:20:23.814Z,7.65
2023-01-23T20:23:22.400Z,8.22
2023-01-23T20:26:21.211Z,8.43
2023-01-23T20:29:19.776Z,8.93
2023-01-23T20:32:18.773Z,9.71
2023-01-23T20:35:16.757Z,9.98
2023-01-23T20:38:15.916Z,9.61
2023-01-23T20:41:13.405Z,9.33
2023-01-23T20:44:13.866Z,9.96
2023-01-23T20:47:11.856Z,10.46
2023-01-23T20:50:10.510Z,10.34
2023-01-23T20:53:28.844Z,10.13
2023-01-23T20:56:35.126Z,10.25
2023-01-23T20:59:32.905Z,10.24
2023-01-23T21:02:34.514Z,9.56
2023-01-23T21:05:32.973Z,8.44
2023-01-23T21:08:32.020Z,7.56
2023-01-23T21:11:30.506Z,6.84
2023-01-23T21:14:32.325Z,6.23
2023-01-23T21:17:29.774Z,5.97
2023-01-23T21:20:28.100Z,6.32
2023-01-23T21:23:26.821Z,6.34
2023-01-23T21:26:25.572Z,6.22
2023-01-23T21:29:23.630Z,6.17
2023-01-23T21:32:21.920Z,6.03
2023-01-23T21:35:20.214Z,5.95
2023-01-23T21:38:18.744Z,6.58
2023-01-23T21:41:17.196Z,7.41
2023-01-23T21:44:14.670Z,7.80
2023-01-23T21:47:12.644Z,8.72
2023-01-23T21:50:10.136Z,8.86
2023-01-23T21:53:08.777Z,8.93
2023-01-23T21:56:06.249Z,9.46
2023-01-23T21:59:04.097Z,9.62
2023-01-23T22:02:02.051Z,9.37
2023-01-23T22:04:59.558Z,9.07
2023-01-23T22:07:57.390Z,9.00
2023-01-23T22:10:54.823Z,9.47
2023-01-23T22:13:52.728Z,9.20
2023-01-23T22:16:51.105Z,8.88
2023-01-23T22:19:49.421Z,8.73
2023-01-23T22:22:46.881Z,8.80
2023-01-23T22:25:44.727Z,8.63
2023-01-23T22:28:42.578Z,8.52
2023-01-23T22:31:40.639Z,8.36
2023-01-23T22:34:38.240Z,8.12
2023-01-23T22:37:36.090Z,7.98
2023-01-23T22:40:33.948Z,8.28
2023-01-23T22:43:31.402Z,8.35
2023-01-23T22:46:29.389Z,8.43
2023-01-23T22:49:26.961Z,8.36
2023-01-23T22:52:24.822Z,8.28
2023-01-23T22:55:22.543Z,8.26
2023-01-23T22:58:20.559Z,8.24
2023-01-23T23:01:18.047Z,8.24
2023-01-23T23:04:15.888Z,8.25
2023-01-23T23:07:13.458Z,8.10
2023-01-23T23:10:11.629Z,7.99
2023-01-23T23:13:09.084Z,7.98
2023-01-23T23:16:06.878Z,7.99
2023-01-23T23:19:04.339Z,8.01
2023-01-23T23:22:02.187Z,8.18
2023-01-23T23:24:59.637Z,8.14
2023-01-23T23:27:57.449Z,8.09
2023-01-23T23:30:54.975Z,7.99
2023-01-23T23:33:53.049Z,7.94
2023-01-23T23:36:51.047Z,7.86
2023-01-23T23:39:48.891Z,7.90
2023-01-23T23:42:46.318Z,7.90
2023-01-23T23:45:44.254Z,7.76
2023-01-23T23:48:42.315Z,8.02
2023-01-23T23:51:39.751Z,8.13
2023-01-23T23:54:37.563Z,7.94
2023-01-23T23:57:35.099Z,8.09
